sensor_id;sensor_type;location;lat;lon;timestamp;P1;durP1;ratioP1;P2;durP2;ratioP2
2848;SDS011;59355;52.416;13.412;2023-02-10T00:00:55;17.17;;;14.07;;
2848;SDS011;59355;52.416;13.412;2023-02-10T00:03:20;17.80;;;14.57;;
2848;SDS011;59355;52.416;13.412;2023-02-10T00:05:45;19.83;;;15.67;;
2848;SDS011;59355;52.416;13.412;2023-02-10T00:08:11;17.60;;;13.83;;
2848;SDS011;59355;52.416;13.412;2023-02-10T00:10:37;19.33;;;14.20;;
2848;SDS011;59355;52.416;13.412;2023-02-10T00:13:02;19.87;;;15.40;;
2848;SDS011;59355;52.416;13.412;2023-02-10T00:15:27;16.40;;;13.33;;
2848;SDS011;59355;52.416;13.412;2023-02-10T00:17:52;20.37;;;12.93;;
2848;SDS011;59355;52.416;13.412;2023-02-10T00:20:18;22.27;;;15.00;;
2848;SDS011;59355;52.416;13.412;2023-02-10T00:22:43;18.73;;;14.00;;
2848;SDS011;59355;52.416;13.412;2023-02-10T00:25:08;20.37;;;14.30;;
2848;SDS011;59355;52.416;13.412;2023-02-10T00:27:34;19.87;;;13.60;;
2848;SDS011;59355;52.416;13.412;2023-02-10T00:29:59;20.33;;;13.90;;
2848;SDS011;59355;52.416;13.412;2023-02-10T00:32:24;19.17;;;15.00;;
2848;SDS011;59355;52.416;13.412;2023-02-10T00:34:50;21.40;;;15.33;;
2848;SDS011;59355;52.416;13.412;2023-02-10T00:37:15;19.00;;;15.00;;
2848;SDS011;59355;52.416;13.412;2023-02-10T00:39:40;19.33;;;13.97;;
2848;SDS011;59355;52.416;13.412;2023-02-10T00:42:06;16.83;;;14.50;;
2848;SDS011;59355;52.416;13.412;2023-02-10T00:44:31;21.47;;;14.77;;
2848;SDS011;59355;52.416;13.412;2023-02-10T00:46:56;20.00;;;14.20;;
2848;SDS011;59355;52.416;13.412;2023-02-10T00:49:22;22.03;;;15.37;;
2848;SDS011;59355;52.416;13.412;2023-02-10T00:51:47;17.97;;;14.63;;
2848;SDS011;59355;52.416;13.412;2023-02-10T00:54:12;21.97;;;14.27;;
2848;SDS011;59355;52.416;13.412;2023-02-10T00:56:38;23.13;;;16.00;;
2848;SDS011;59355;52.416;13.412;2023-02-10T00:59:04;19.40;;;14.43;;
2848;SDS011;59355;52.416;13.412;2023-02-10T01:01:29;20.20;;;15.50;;
2848;SDS011;59355;52.416;13.412;2023-02-10T01:03:55;17.90;;;15.60;;
2848;SDS011;59355;52.416;13.412;2023-02-10T01:06:20;16.77;;;13.90;;
2848;SDS011;59355;52.416;13.412;2023-02-10T01:08:45;24.83;;;16.27;;
2848;SDS011;59355;52.416;13.412;2023-02-10T01:11:11;23.33;;;16.77;;
2848;SDS011;59355;52.416;13.412;2023-02-10T01:13:37;23.90;;;17.30;;
2848;SDS011;59355;52.416;13.412;2023-02-10T01:16:04;18.90;;;15.67;;
2848;SDS011;59355;52.416;13.412;2023-02-10T01:18:30;20.73;;;14.57;;
2848;SDS011;59355;52.416;13.412;2023-02-10T01:20:55;20.77;;;16.47;;
2848;SDS011;59355;52.416;13.412;2023-02-10T01:23:21;23.63;;;16.33;;
2848;SDS011;59355;52.416;13.412;2023-02-10T01:25:46;21.30;;;16.10;;
2848;SDS011;59355;52.416;13.412;2023-02-10T01:28:11;21.40;;;15.40;;
2848;SDS011;59355;52.416;13.412;2023-02-10T01:30:37;26.60;;;19.70;;
2848;SDS011;59355;52.416;13.412;2023-02-10T01:33:02;25.37;;;16.63;;
2848;SDS011;59355;52.416;13.412;2023-02-10T01:35:28;23.30;;;16.70;;
2848;SDS011;59355;52.416;13.412;2023-02-10T01:37:53;22.23;;;15.77;;
2848;SDS011;59355;52.416;13.412;2023-02-10T01:40:19;24.47;;;16.87;;
2848;SDS011;59355;52.416;13.412;2023-02-10T01:42:45;22.70;;;18.10;;
2848;SDS011;59355;52.416;13.412;2023-02-10T01:47:58;21.53;;;16.23;;
2848;SDS011;59355;52.416;13.412;2023-02-10T01:50:26;21.97;;;18.13;;
2848;SDS011;59355;52.416;13.412;2023-02-10T01:52:54;21.67;;;17.70;;
2848;SDS011;59355;52.416;13.412;2023-02-10T01:55:20;22.60;;;16.20;;
2848;SDS011;59355;52.416;13.412;2023-02-10T01:57:48;22.13;;;15.93;;
2848;SDS011;59355;52.416;13.412;2023-02-10T02:00:18;24.43;;;15.90;;
2848;SDS011;59355;52.416;13.412;2023-02-10T02:02:44;21.30;;;15.30;;
2848;SDS011;59355;52.416;13.412;2023-02-10T02:05:26;27.97;;;17.70;;
2848;SDS011;59355;52.416;13.412;2023-02-10T02:07:55;23.33;;;16.07;;
2848;SDS011;59355;52.416;13.412;2023-02-10T02:10:30;24.17;;;17.20;;
2848;SDS011;59355;52.416;13.412;2023-02-10T02:13:33;23.93;;;16.90;;
2848;SDS011;59355;52.416;13.412;2023-02-10T02:19:16;23.00;;;16.43;;
2848;SDS011;59355;52.416;13.412;2023-02-10T02:33:04;23.10;;;16.10;;
2848;SDS011;59355;52.416;13.412;2023-02-10T02:35:40;23.10;;;15.73;;
2848;SDS011;59355;52.416;13.412;2023-02-10T02:38:09;22.67;;;16.33;;
2848;SDS011;59355;52.416;13.412;2023-02-10T02:40:34;20.57;;;16.30;;
2848;SDS011;59355;52.416;13.412;2023-02-10T02:42:59;23.90;;;16.73;;
2848;SDS011;59355;52.416;13.412;2023-02-10T02:45:26;23.63;;;16.50;;
2848;SDS011;59355;52.416;13.412;2023-02-10T02:48:03;27.07;;;19.40;;
2848;SDS011;59355;52.416;13.412;2023-02-10T02:50:35;25.60;;;19.00;;
2848;SDS011;59355;52.416;13.412;2023-02-10T02:58:16;30.90;;;19.07;;
2848;SDS011;59355;52.416;13.412;2023-02-10T03:00:42;27.93;;;19.10;;
2848;SDS011;59355;52.416;13.412;2023-02-10T03:03:09;24.73;;;17.07;;
2848;SDS011;59355;52.416;13.412;2023-02-10T03:05:34;24.20;;;17.50;;
2848;SDS011;59355;52.416;13.412;2023-02-10T03:08:00;28.57;;;18.50;;
2848;SDS011;59355;52.416;13.412;2023-02-10T03:10:25;24.40;;;17.00;;
2848;SDS011;59355;52.416;13.412;2023-02-10T03:12:51;27.17;;;19.97;;
2848;SDS011;59355;52.416;13.412;2023-02-10T03:15:16;23.07;;;16.70;;
2848;SDS011;59355;52.416;13.412;2023-02-10T03:17:41;28.50;;;19.50;;
2848;SDS011;59355;52.416;13.412;2023-02-10T03:20:07;26.03;;;18.63;;
2848;SDS011;59355;52.416;13.412;2023-02-10T03:22:32;22.83;;;18.07;;
2848;SDS011;59355;52.416;13.412;2023-02-10T03:24:58;31.57;;;17.97;;
2848;SDS011;59355;52.416;13.412;2023-02-10T03:27:23;28.23;;;19.57;;
2848;SDS011;59355;52.416;13.412;2023-02-10T03:29:48;29.20;;;19.87;;
2848;SDS011;59355;52.416;13.412;2023-02-10T03:32:14;31.47;;;20.40;;
2848;SDS011;59355;52.416;13.412;2023-02-10T03:34:40;27.83;;;19.80;;
2848;SDS011;59355;52.416;13.412;2023-02-10T03:37:06;27.93;;;20.00;;
2848;SDS011;59355;52.416;13.412;2023-02-10T03:39:31;29.33;;;19.67;;
2848;SDS011;59355;52.416;13.412;2023-02-10T03:41:56;30.03;;;20.97;;
2848;SDS011;59355;52.416;13.412;2023-02-10T03:44:22;33.37;;;21.30;;
2848;SDS011;59355;52.416;13.412;2023-02-10T03:46:47;30.67;;;21.03;;
2848;SDS011;59355;52.416;13.412;2023-02-10T03:49:12;33.37;;;22.23;;
2848;SDS011;59355;52.416;13.412;2023-02-10T03:51:38;31.93;;;22.13;;
2848;SDS011;59355;52.416;13.412;2023-02-10T03:54:03;31.73;;;22.43;;
2848;SDS011;59355;52.416;13.412;2023-02-10T03:56:28;36.37;;;22.07;;
2848;SDS011;59355;52.416;13.412;2023-02-10T03:58:53;36.63;;;24.97;;
2848;SDS011;59355;52.416;13.412;2023-02-10T04:01:19;35.90;;;21.77;;
2848;SDS011;59355;52.416;13.412;2023-02-10T04:03:44;36.53;;;22.03;;
2848;SDS011;59355;52.416;13.412;2023-02-10T04:06:10;35.43;;;23.20;;
2848;SDS011;59355;52.416;13.412;2023-02-10T04:08:36;35.30;;;24.10;;
2848;SDS011;59355;52.416;13.412;2023-02-10T04:11:02;44.10;;;24.67;;
2848;SDS011;59355;52.416;13.412;2023-02-10T04:13:28;39.40;;;24.77;;
2848;SDS011;59355;52.416;13.412;2023-02-10T04:16:03;37.17;;;24.30;;
2848;SDS011;59355;52.416;13.412;2023-02-10T04:18:30;47.40;;;27.03;;
2848;SDS011;59355;52.416;13.412;2023-02-10T04:20:55;35.37;;;23.60;;
2848;SDS011;59355;52.416;13.412;2023-02-10T04:23:20;39.90;;;26.20;;
2848;SDS011;59355;52.416;13.412;2023-02-10T04:25:46;39.47;;;28.40;;
2848;SDS011;59355;52.416;13.412;2023-02-10T04:28:11;36.47;;;25.70;;
2848;SDS011;59355;52.416;13.412;2023-02-10T04:30:36;44.27;;;27.67;;
2848;SDS011;59355;52.416;13.412;2023-02-10T04:33:02;39.07;;;28.27;;
2848;SDS011;59355;52.416;13.412;2023-02-10T04:35:27;42.30;;;27.03;;
2848;SDS011;59355;52.416;13.412;2023-02-10T04:37:52;40.47;;;29.40;;
2848;SDS011;59355;52.416;13.412;2023-02-10T04:40:18;44.03;;;27.40;;
2848;SDS011;59355;52.416;13.412;2023-02-10T04:42:43;40.97;;;28.33;;
2848;SDS011;59355;52.416;13.412;2023-02-10T04:45:08;43.40;;;28.83;;
2848;SDS011;59355;52.416;13.412;2023-02-10T04:47:34;48.33;;;30.53;;
2848;SDS011;59355;52.416;13.412;2023-02-10T04:49:59;45.67;;;30.97;;
2848;SDS011;59355;52.416;13.412;2023-02-10T04:52:24;50.30;;;31.77;;
2848;SDS011;59355;52.416;13.412;2023-02-10T04:54:50;44.97;;;30.90;;
2848;SDS011;59355;52.416;13.412;2023-02-10T04:57:15;39.53;;;29.70;;
2848;SDS011;59355;52.416;13.412;2023-02-10T04:59:40;45.57;;;33.03;;
2848;SDS011;59355;52.416;13.412;2023-02-10T05:02:05;46.37;;;32.27;;
2848;SDS011;59355;52.416;13.412;2023-02-10T05:04:31;48.63;;;34.20;;
2848;SDS011;59355;52.416;13.412;2023-02-10T05:06:56;50.60;;;31.37;;
2848;SDS011;59355;52.416;13.412;2023-02-10T05:09:23;46.40;;;32.30;;
2848;SDS011;59355;52.416;13.412;2023-02-10T05:11:49;47.20;;;32.37;;
2848;SDS011;59355;52.416;13.412;2023-02-10T05:14:14;46.50;;;30.97;;
2848;SDS011;59355;52.416;13.412;2023-02-10T05:16:39;47.20;;;31.90;;
2848;SDS011;59355;52.416;13.412;2023-02-10T05:19:05;55.60;;;33.40;;
2848;SDS011;59355;52.416;13.412;2023-02-10T05:21:30;49.87;;;33.53;;
2848;SDS011;59355;52.416;13.412;2023-02-10T05:23:56;52.00;;;31.23;;
2848;SDS011;59355;52.416;13.412;2023-02-10T05:26:22;48.07;;;32.60;;
2848;SDS011;59355;52.416;13.412;2023-02-10T05:28:48;54.30;;;32.90;;
2848;SDS011;59355;52.416;13.412;2023-02-10T05:31:13;55.30;;;34.90;;
2848;SDS011;59355;52.416;13.412;2023-02-10T05:33:38;54.10;;;32.47;;
2848;SDS011;59355;52.416;13.412;2023-02-10T05:36:04;44.17;;;33.33;;
2848;SDS011;59355;52.416;13.412;2023-02-10T05:38:30;53.60;;;34.30;;
2848;SDS011;59355;52.416;13.412;2023-02-10T05:40:55;56.03;;;33.10;;
2848;SDS011;59355;52.416;13.412;2023-02-10T05:43:20;51.43;;;34.93;;
2848;SDS011;59355;52.416;13.412;2023-02-10T05:45:46;47.67;;;33.50;;
2848;SDS011;59355;52.416;13.412;2023-02-10T05:48:11;45.40;;;32.93;;
2848;SDS011;59355;52.416;13.412;2023-02-10T05:50:37;50.67;;;31.63;;
2848;SDS011;59355;52.416;13.412;2023-02-10T05:53:04;49.03;;;31.67;;
2848;SDS011;59355;52.416;13.412;2023-02-10T05:55:30;50.40;;;32.90;;
2848;SDS011;59355;52.416;13.412;2023-02-10T05:57:55;47.97;;;33.57;;
2848;SDS011;59355;52.416;13.412;2023-02-10T06:00:20;51.17;;;31.57;;
2848;SDS011;59355;52.416;13.412;2023-02-10T06:02:46;57.50;;;35.70;;
2848;SDS011;59355;52.416;13.412;2023-02-10T06:05:11;48.90;;;32.53;;
2848;SDS011;59355;52.416;13.412;2023-02-10T06:07:36;49.53;;;32.23;;
2848;SDS011;59355;52.416;13.412;2023-02-10T06:10:02;50.27;;;31.83;;
2848;SDS011;59355;52.416;13.412;2023-02-10T06:12:27;53.00;;;35.13;;
2848;SDS011;59355;52.416;13.412;2023-02-10T06:14:52;51.23;;;32.97;;
2848;SDS011;59355;52.416;13.412;2023-02-10T06:17:18;59.43;;;34.43;;
2848;SDS011;59355;52.416;13.412;2023-02-10T06:19:43;62.03;;;33.83;;
2848;SDS011;59355;52.416;13.412;2023-02-10T06:22:08;49.17;;;31.30;;
2848;SDS011;59355;52.416;13.412;2023-02-10T06:24:34;55.00;;;33.23;;
2848;SDS011;59355;52.416;13.412;2023-02-10T06:27:00;52.17;;;35.40;;
2848;SDS011;59355;52.416;13.412;2023-02-10T06:29:25;54.17;;;34.07;;
2848;SDS011;59355;52.416;13.412;2023-02-10T06:31:50;48.37;;;34.13;;
2848;SDS011;59355;52.416;13.412;2023-02-10T06:34:16;58.30;;;33.63;;
2848;SDS011;59355;52.416;13.412;2023-02-10T06:36:41;55.23;;;31.90;;
2848;SDS011;59355;52.416;13.412;2023-02-10T06:39:07;54.50;;;35.07;;
2848;SDS011;59355;52.416;13.412;2023-02-10T06:41:32;51.10;;;34.13;;
2848;SDS011;59355;52.416;13.412;2023-02-10T06:43:58;52.47;;;34.57;;
2848;SDS011;59355;52.416;13.412;2023-02-10T06:46:23;52.97;;;33.73;;
2848;SDS011;59355;52.416;13.412;2023-02-10T06:48:49;51.33;;;33.90;;
2848;SDS011;59355;52.416;13.412;2023-02-10T06:51:14;55.20;;;34.17;;
2848;SDS011;59355;52.416;13.412;2023-02-10T06:53:40;55.90;;;35.80;;
2848;SDS011;59355;52.416;13.412;2023-02-10T06:56:07;57.20;;;34.73;;
2848;SDS011;59355;52.416;13.412;2023-02-10T06:58:32;53.87;;;34.97;;
2848;SDS011;59355;52.416;13.412;2023-02-10T07:00:57;62.90;;;35.53;;
2848;SDS011;59355;52.416;13.412;2023-02-10T07:03:25;55.67;;;33.90;;
2848;SDS011;59355;52.416;13.412;2023-02-10T07:05:50;61.77;;;35.60;;
2848;SDS011;59355;52.416;13.412;2023-02-10T07:08:16;56.67;;;36.03;;
2848;SDS011;59355;52.416;13.412;2023-02-10T07:10:41;57.80;;;34.57;;
2848;SDS011;59355;52.416;13.412;2023-02-10T07:13:06;62.07;;;37.33;;
2848;SDS011;59355;52.416;13.412;2023-02-10T07:15:32;62.30;;;37.03;;
2848;SDS011;59355;52.416;13.412;2023-02-10T07:17:57;60.20;;;34.93;;
2848;SDS011;59355;52.416;13.412;2023-02-10T07:20:23;93.90;;;58.30;;
2848;SDS011;59355;52.416;13.412;2023-02-10T07:22:49;59.30;;;38.20;;
2848;SDS011;59355;52.416;13.412;2023-02-10T07:25:15;56.70;;;37.70;;
2848;SDS011;59355;52.416;13.412;2023-02-10T07:27:40;57.20;;;36.90;;
2848;SDS011;59355;52.416;13.412;2023-02-10T07:30:06;62.63;;;36.33;;
2848;SDS011;59355;52.416;13.412;2023-02-10T07:32:31;61.53;;;35.87;;
2848;SDS011;59355;52.416;13.412;2023-02-10T07:34:57;53.23;;;36.10;;
2848;SDS011;59355;52.416;13.412;2023-02-10T07:37:22;55.37;;;34.03;;
2848;SDS011;59355;52.416;13.412;2023-02-10T07:39:47;58.20;;;34.93;;
2848;SDS011;59355;52.416;13.412;2023-02-10T07:42:12;57.40;;;35.47;;
2848;SDS011;59355;52.416;13.412;2023-02-10T07:44:38;55.57;;;33.37;;
2848;SDS011;59355;52.416;13.412;2023-02-10T07:47:04;48.60;;;34.50;;
2848;SDS011;59355;52.416;13.412;2023-02-10T07:49:30;55.40;;;33.70;;
2848;SDS011;59355;52.416;13.412;2023-02-10T07:51:55;49.97;;;31.97;;
2848;SDS011;59355;52.416;13.412;2023-02-10T07:54:20;56.30;;;34.10;;
2848;SDS011;59355;52.416;13.412;2023-02-10T07:56:46;55.80;;;34.80;;
2848;SDS011;59355;52.416;13.412;2023-02-10T07:59:11;57.07;;;34.70;;
2848;SDS011;59355;52.416;13.412;2023-02-10T08:01:37;50.00;;;32.93;;
2848;SDS011;59355;52.416;13.412;2023-02-10T08:04:06;49.07;;;32.00;;
2848;SDS011;59355;52.416;13.412;2023-02-10T08:06:32;50.87;;;32.70;;
2848;SDS011;59355;52.416;13.412;2023-02-10T08:08:57;47.17;;;32.40;;
2848;SDS011;59355;52.416;13.412;2023-02-10T08:11:23;48.40;;;32.10;;
2848;SDS011;59355;52.416;13.412;2023-02-10T08:13:48;47.17;;;30.30;;
2848;SDS011;59355;52.416;13.412;2023-02-10T08:16:13;48.13;;;29.57;;
2848;SDS011;59355;52.416;13.412;2023-02-10T08:18:38;50.37;;;31.17;;
2848;SDS011;59355;52.416;13.412;2023-02-10T08:21:04;48.90;;;29.73;;
2848;SDS011;59355;52.416;13.412;2023-02-10T08:23:29;49.70;;;29.80;;
2848;SDS011;59355;52.416;13.412;2023-02-10T08:25:54;45.23;;;29.47;;
2848;SDS011;59355;52.416;13.412;2023-02-10T08:28:20;62.23;;;30.10;;
2848;SDS011;59355;52.416;13.412;2023-02-10T08:30:45;40.27;;;27.70;;
2848;SDS011;59355;52.416;13.412;2023-02-10T08:33:11;48.37;;;29.57;;
2848;SDS011;59355;52.416;13.412;2023-02-10T08:35:37;46.70;;;31.43;;
2848;SDS011;59355;52.416;13.412;2023-02-10T08:38:02;52.87;;;32.40;;
2848;SDS011;59355;52.416;13.412;2023-02-10T08:40:29;47.87;;;32.70;;
2848;SDS011;59355;52.416;13.412;2023-02-10T08:42:54;43.53;;;28.10;;
2848;SDS011;59355;52.416;13.412;2023-02-10T08:45:19;46.57;;;30.57;;
2848;SDS011;59355;52.416;13.412;2023-02-10T08:47:45;47.47;;;28.30;;
2848;SDS011;59355;52.416;13.412;2023-02-10T08:50:10;42.30;;;29.27;;
2848;SDS011;59355;52.416;13.412;2023-02-10T08:52:35;50.83;;;28.60;;
2848;SDS011;59355;52.416;13.412;2023-02-10T08:55:01;48.73;;;29.57;;
2848;SDS011;59355;52.416;13.412;2023-02-10T08:57:26;45.00;;;29.80;;
2848;SDS011;59355;52.416;13.412;2023-02-10T08:59:52;41.90;;;28.53;;
2848;SDS011;59355;52.416;13.412;2023-02-10T09:02:17;45.93;;;28.90;;
2848;SDS011;59355;52.416;13.412;2023-02-10T09:04:42;49.33;;;28.53;;
2848;SDS011;59355;52.416;13.412;2023-02-10T09:07:08;49.70;;;29.70;;
2848;SDS011;59355;52.416;13.412;2023-02-10T09:09:39;46.33;;;29.47;;
2848;SDS011;59355;52.416;13.412;2023-02-10T09:12:06;45.53;;;29.03;;
2848;SDS011;59355;52.416;13.412;2023-02-10T09:14:32;36.50;;;26.30;;
2848;SDS011;59355;52.416;13.412;2023-02-10T09:16:57;41.40;;;28.97;;
2848;SDS011;59355;52.416;13.412;2023-02-10T09:19:23;41.40;;;29.30;;
2848;SDS011;59355;52.416;13.412;2023-02-10T09:21:49;48.53;;;28.53;;
2848;SDS011;59355;52.416;13.412;2023-02-10T09:24:14;52.40;;;27.00;;
2848;SDS011;59355;52.416;13.412;2023-02-10T09:26:40;46.93;;;29.33;;
2848;SDS011;59355;52.416;13.412;2023-02-10T09:29:06;38.83;;;27.80;;
2848;SDS011;59355;52.416;13.412;2023-02-10T09:31:32;48.37;;;29.90;;
2848;SDS011;59355;52.416;13.412;2023-02-10T09:33:58;42.33;;;26.43;;
2848;SDS011;59355;52.416;13.412;2023-02-10T09:36:24;42.40;;;27.60;;
2848;SDS011;59355;52.416;13.412;2023-02-10T09:38:49;47.07;;;28.40;;
2848;SDS011;59355;52.416;13.412;2023-02-10T09:50:26;44.60;;;27.00;;
2848;SDS011;59355;52.416;13.412;2023-02-10T09:55:38;42.67;;;29.03;;
2848;SDS011;59355;52.416;13.412;2023-02-10T10:01:37;42.63;;;32.63;;
2848;SDS011;59355;52.416;13.412;2023-02-10T10:03:43;51.20;;;30.80;;
2848;SDS011;59355;52.416;13.412;2023-02-10T10:06:25;42.20;;;27.37;;
2848;SDS011;59355;52.416;13.412;2023-02-10T10:11:29;47.30;;;28.33;;
2848;SDS011;59355;52.416;13.412;2023-02-10T10:14:19;50.50;;;30.13;;
2848;SDS011;59355;52.416;13.412;2023-02-10T10:17:06;45.00;;;27.60;;
2848;SDS011;59355;52.416;13.412;2023-02-10T10:25:16;41.97;;;29.73;;
2848;SDS011;59355;52.416;13.412;2023-02-10T10:30:25;45.40;;;30.03;;
2848;SDS011;59355;52.416;13.412;2023-02-10T10:33:24;40.60;;;28.20;;
2848;SDS011;59355;52.416;13.412;2023-02-10T10:35:52;52.57;;;28.03;;
2848;SDS011;59355;52.416;13.412;2023-02-10T10:38:20;49.97;;;29.27;;
2848;SDS011;59355;52.416;13.412;2023-02-10T10:40:47;57.80;;;28.37;;
2848;SDS011;59355;52.416;13.412;2023-02-10T10:43:26;45.50;;;27.97;;
2848;SDS011;59355;52.416;13.412;2023-02-10T10:46:03;51.23;;;29.27;;
2848;SDS011;59355;52.416;13.412;2023-02-10T10:48:35;42.40;;;27.40;;
2848;SDS011;59355;52.416;13.412;2023-02-10T10:51:03;38.10;;;24.47;;
2848;SDS011;59355;52.416;13.412;2023-02-10T10:53:46;40.23;;;24.80;;
2848;SDS011;59355;52.416;13.412;2023-02-10T10:56:16;40.23;;;25.00;;
2848;SDS011;59355;52.416;13.412;2023-02-10T10:58:46;39.93;;;27.43;;
2848;SDS011;59355;52.416;13.412;2023-02-10T11:01:13;44.93;;;27.50;;
2848;SDS011;59355;52.416;13.412;2023-02-10T11:03:39;45.07;;;26.80;;
2848;SDS011;59355;52.416;13.412;2023-02-10T11:08:42;42.77;;;28.37;;
2848;SDS011;59355;52.416;13.412;2023-02-10T11:11:10;42.57;;;25.43;;
2848;SDS011;59355;52.416;13.412;2023-02-10T11:13:39;38.50;;;25.17;;
2848;SDS011;59355;52.416;13.412;2023-02-10T11:16:10;41.50;;;25.33;;
2848;SDS011;59355;52.416;13.412;2023-02-10T11:18:49;39.73;;;27.30;;
2848;SDS011;59355;52.416;13.412;2023-02-10T11:21:19;39.03;;;24.43;;
2848;SDS011;59355;52.416;13.412;2023-02-10T11:23:51;35.60;;;24.23;;
2848;SDS011;59355;52.416;13.412;2023-02-10T11:26:21;41.30;;;28.90;;
2848;SDS011;59355;52.416;13.412;2023-02-10T11:28:48;39.70;;;27.00;;
2848;SDS011;59355;52.416;13.412;2023-02-10T11:31:33;41.77;;;25.30;;
2848;SDS011;59355;52.416;13.412;2023-02-10T11:34:02;38.50;;;25.00;;
2848;SDS011;59355;52.416;13.412;2023-02-10T11:36:33;36.67;;;24.33;;
2848;SDS011;59355;52.416;13.412;2023-02-10T11:39:02;46.87;;;26.40;;
2848;SDS011;59355;52.416;13.412;2023-02-10T11:41:29;39.50;;;25.37;;
2848;SDS011;59355;52.416;13.412;2023-02-10T11:43:55;41.90;;;26.10;;
2848;SDS011;59355;52.416;13.412;2023-02-10T11:46:24;40.33;;;26.23;;
2848;SDS011;59355;52.416;13.412;2023-02-10T11:48:52;44.20;;;25.47;;
2848;SDS011;59355;52.416;13.412;2023-02-10T11:51:22;37.87;;;24.43;;
2848;SDS011;59355;52.416;13.412;2023-02-10T11:53:48;54.07;;;34.83;;
2848;SDS011;59355;52.416;13.412;2023-02-10T11:56:29;36.27;;;24.73;;
2848;SDS011;59355;52.416;13.412;2023-02-10T12:02:37;33.97;;;22.63;;
2848;SDS011;59355;52.416;13.412;2023-02-10T12:05:23;36.60;;;23.20;;
2848;SDS011;59355;52.416;13.412;2023-02-10T12:07:53;32.03;;;24.40;;
2848;SDS011;59355;52.416;13.412;2023-02-10T12:10:39;37.07;;;23.70;;
2848;SDS011;59355;52.416;13.412;2023-02-10T12:15:54;33.83;;;23.80;;
2848;SDS011;59355;52.416;13.412;2023-02-10T12:21:33;42.33;;;24.60;;
2848;SDS011;59355;52.416;13.412;2023-02-10T12:29:34;33.73;;;23.20;;
2848;SDS011;59355;52.416;13.412;2023-02-10T12:32:17;35.87;;;25.00;;
2848;SDS011;59355;52.416;13.412;2023-02-10T12:37:35;31.90;;;23.27;;
2848;SDS011;59355;52.416;13.412;2023-02-10T12:40:13;36.03;;;24.03;;
2848;SDS011;59355;52.416;13.412;2023-02-10T12:45:17;34.47;;;22.40;;
2848;SDS011;59355;52.416;13.412;2023-02-10T12:47:57;33.83;;;23.67;;
2848;SDS011;59355;52.416;13.412;2023-02-10T12:53:14;34.10;;;24.53;;
2848;SDS011;59355;52.416;13.412;2023-02-10T12:58:34;30.03;;;21.17;;
2848;SDS011;59355;52.416;13.412;2023-02-10T13:01:15;39.17;;;21.37;;
2848;SDS011;59355;52.416;13.412;2023-02-10T13:03:52;32.63;;;21.80;;
2848;SDS011;59355;52.416;13.412;2023-02-10T13:06:32;31.53;;;21.90;;
2848;SDS011;59355;52.416;13.412;2023-02-10T13:09:15;42.67;;;22.17;;
2848;SDS011;59355;52.416;13.412;2023-02-10T13:12:02;29.67;;;20.57;;
2848;SDS011;59355;52.416;13.412;2023-02-10T13:14:41;29.33;;;21.10;;
2848;SDS011;59355;52.416;13.412;2023-02-10T13:17:07;32.00;;;20.67;;
2848;SDS011;59355;52.416;13.412;2023-02-10T13:19:37;34.00;;;21.90;;
2848;SDS011;59355;52.416;13.412;2023-02-10T13:25:21;38.50;;;19.20;;
2848;SDS011;59355;52.416;13.412;2023-02-10T13:28:01;32.87;;;19.57;;
2848;SDS011;59355;52.416;13.412;2023-02-10T13:36:25;32.70;;;19.20;;
2848;SDS011;59355;52.416;13.412;2023-02-10T13:38:59;30.30;;;18.33;;
2848;SDS011;59355;52.416;13.412;2023-02-10T13:41:29;28.70;;;17.47;;
2848;SDS011;59355;52.416;13.412;2023-02-10T13:44:16;34.50;;;19.53;;
2848;SDS011;59355;52.416;13.412;2023-02-10T13:46:46;30.03;;;19.50;;
2848;SDS011;59355;52.416;13.412;2023-02-10T13:49:16;26.30;;;17.50;;
2848;SDS011;59355;52.416;13.412;2023-02-10T13:51:42;25.17;;;18.47;;
2848;SDS011;59355;52.416;13.412;2023-02-10T13:54:28;29.37;;;18.90;;
2848;SDS011;59355;52.416;13.412;2023-02-10T13:56:56;28.23;;;18.83;;
2848;SDS011;59355;52.416;13.412;2023-02-10T14:02:00;32.23;;;18.63;;
2848;SDS011;59355;52.416;13.412;2023-02-10T14:04:40;27.70;;;18.53;;
2848;SDS011;59355;52.416;13.412;2023-02-10T14:10:05;27.33;;;19.57;;
2848;SDS011;59355;52.416;13.412;2023-02-10T14:12:31;31.40;;;20.47;;
2848;SDS011;59355;52.416;13.412;2023-02-10T14:14:56;31.40;;;21.43;;
2848;SDS011;59355;52.416;13.412;2023-02-10T14:17:42;34.20;;;20.50;;
2848;SDS011;59355;52.416;13.412;2023-02-10T14:20:22;25.40;;;18.80;;
2848;SDS011;59355;52.416;13.412;2023-02-10T14:22:50;34.40;;;20.03;;
2848;SDS011;59355;52.416;13.412;2023-02-10T14:25:17;35.37;;;20.97;;
2848;SDS011;59355;52.416;13.412;2023-02-10T14:27:52;29.80;;;19.50;;
2848;SDS011;59355;52.416;13.412;2023-02-10T14:30:20;33.10;;;20.73;;
2848;SDS011;59355;52.416;13.412;2023-02-10T14:32:47;27.30;;;19.33;;
2848;SDS011;59355;52.416;13.412;2023-02-10T14:35:15;29.23;;;20.13;;
2848;SDS011;59355;52.416;13.412;2023-02-10T14:37:50;31.60;;;20.63;;
2848;SDS011;59355;52.416;13.412;2023-02-10T14:40:17;31.83;;;20.80;;
2848;SDS011;59355;52.416;13.412;2023-02-10T14:42:43;31.40;;;19.87;;
2848;SDS011;59355;52.416;13.412;2023-02-10T14:45:43;36.00;;;21.63;;
2848;SDS011;59355;52.416;13.412;2023-02-10T14:48:04;31.77;;;22.20;;
2848;SDS011;59355;52.416;13.412;2023-02-10T14:50:32;39.20;;;23.03;;
2848;SDS011;59355;52.416;13.412;2023-02-10T14:52:59;35.10;;;23.60;;
2848;SDS011;59355;52.416;13.412;2023-02-10T14:55:35;33.27;;;21.40;;
2848;SDS011;59355;52.416;13.412;2023-02-10T14:58:20;37.27;;;22.07;;
2848;SDS011;59355;52.416;13.412;2023-02-10T15:01:04;37.03;;;23.40;;
2848;SDS011;59355;52.416;13.412;2023-02-10T15:03:31;33.57;;;23.30;;
2848;SDS011;59355;52.416;13.412;2023-02-10T15:05:56;30.07;;;22.80;;
2848;SDS011;59355;52.416;13.412;2023-02-10T15:08:28;38.67;;;22.83;;
2848;SDS011;59355;52.416;13.412;2023-02-10T15:10:57;37.13;;;22.20;;
2848;SDS011;59355;52.416;13.412;2023-02-10T15:13:28;37.90;;;24.47;;
2848;SDS011;59355;52.416;13.412;2023-02-10T15:15:57;38.23;;;24.00;;
2848;SDS011;59355;52.416;13.412;2023-02-10T15:18:24;37.70;;;23.07;;
2848;SDS011;59355;52.416;13.412;2023-02-10T15:20:52;35.10;;;24.30;;
2848;SDS011;59355;52.416;13.412;2023-02-10T15:23:25;38.07;;;23.33;;
2848;SDS011;59355;52.416;13.412;2023-02-10T15:25:58;39.53;;;25.53;;
2848;SDS011;59355;52.416;13.412;2023-02-10T15:28:27;49.43;;;26.20;;
2848;SDS011;59355;52.416;13.412;2023-02-10T15:31:01;36.17;;;24.40;;
2848;SDS011;59355;52.416;13.412;2023-02-10T15:33:40;33.50;;;23.23;;
2848;SDS011;59355;52.416;13.412;2023-02-10T15:36:20;34.57;;;22.17;;
2848;SDS011;59355;52.416;13.412;2023-02-10T15:41:29;42.70;;;25.20;;
2848;SDS011;59355;52.416;13.412;2023-02-10T15:44:22;36.00;;;21.60;;
2848;SDS011;59355;52.416;13.412;2023-02-10T15:49:42;36.40;;;23.10;;
2848;SDS011;59355;52.416;13.412;2023-02-10T15:52:19;43.20;;;27.10;;
2848;SDS011;59355;52.416;13.412;2023-02-10T15:54:46;35.60;;;25.37;;
2848;SDS011;59355;52.416;13.412;2023-02-10T15:57:14;41.00;;;25.73;;
2848;SDS011;59355;52.416;13.412;2023-02-10T15:59:40;39.77;;;25.60;;
2848;SDS011;59355;52.416;13.412;2023-02-10T16:02:07;38.10;;;24.17;;
2848;SDS011;59355;52.416;13.412;2023-02-10T16:04:35;37.53;;;24.57;;